sensor_id;sensor_type;location;lat;lon;timestamp;temperature;humidity
29345;DHT22;16339;48.748;2.222;2022-08-19T00:02:09;24.30;58.40
29345;DHT22;16339;48.748;2.222;2022-08-19T00:04:37;24.30;58.40
29345;DHT22;16339;48.748;2.222;2022-08-19T00:07:06;24.30;58.30
29345;DHT22;16339;48.748;2.222;2022-08-19T00:09:35;24.30;58.30
29345;DHT22;16339;48.748;2.222;2022-08-19T00:12:07;24.30;58.20
29345;DHT22;16339;48.748;2.222;2022-08-19T00:14:36;24.30;58.30
29345;DHT22;16339;48.748;2.222;2022-08-19T00:17:07;24.30;58.20
29345;DHT22;16339;48.748;2.222;2022-08-19T00:19:37;24.30;58.20
29345;DHT22;16339;48.748;2.222;2022-08-19T00:22:06;24.30;58.30
29345;DHT22;16339;48.748;2.222;2022-08-19T00:24:35;24.30;58.30
29345;DHT22;16339;48.748;2.222;2022-08-19T00:27:07;24.30;58.30
29345;DHT22;16339;48.748;2.222;2022-08-19T00:29:35;24.30;58.40
29345;DHT22;16339;48.748;2.222;2022-08-19T00:32:05;24.20;58.40
29345;DHT22;16339;48.748;2.222;2022-08-19T00:34:33;24.20;58.30
29345;DHT22;16339;48.748;2.222;2022-08-19T00:37:02;24.10;58.40
29345;DHT22;16339;48.748;2.222;2022-08-19T00:39:31;24.10;58.60
29345;DHT22;16339;48.748;2.222;2022-08-19T00:42:00;24.10;58.50
29345;DHT22;16339;48.748;2.222;2022-08-19T00:44:34;24.10;58.40
29345;DHT22;16339;48.748;2.222;2022-08-19T00:47:04;24.00;58.30
29345;DHT22;16339;48.748;2.222;2022-08-19T00:49:36;24.00;58.20
29345;DHT22;16339;48.748;2.222;2022-08-19T00:52:08;24.00;58.40
29345;DHT22;16339;48.748;2.222;2022-08-19T00:54:39;23.90;58.50
29345;DHT22;16339;48.748;2.222;2022-08-19T00:57:11;23.90;58.40
29345;DHT22;16339;48.748;2.222;2022-08-19T00:59:47;23.80;58.50
29345;DHT22;16339;48.748;2.222;2022-08-19T01:02:16;23.90;58.40
29345;DHT22;16339;48.748;2.222;2022-08-19T01:04:45;23.80;58.40
29345;DHT22;16339;48.748;2.222;2022-08-19T01:07:14;23.90;58.40
29345;DHT22;16339;48.748;2.222;2022-08-19T01:09:42;23.80;58.30
29345;DHT22;16339;48.748;2.222;2022-08-19T01:12:11;23.80;58.40
29345;DHT22;16339;48.748;2.222;2022-08-19T01:14:40;23.80;58.40
29345;DHT22;16339;48.748;2.222;2022-08-19T01:17:12;23.70;58.20
29345;DHT22;16339;48.748;2.222;2022-08-19T01:19:42;23.70;58.40
29345;DHT22;16339;48.748;2.222;2022-08-19T01:22:12;23.70;58.30
29345;DHT22;16339;48.748;2.222;2022-08-19T01:24:45;23.70;58.30
29345;DHT22;16339;48.748;2.222;2022-08-19T01:27:14;23.60;58.30
29345;DHT22;16339;48.748;2.222;2022-08-19T01:29:44;23.60;58.40
29345;DHT22;16339;48.748;2.222;2022-08-19T01:32:15;23.60;58.60
29345;DHT22;16339;48.748;2.222;2022-08-19T01:34:45;23.60;58.70
29345;DHT22;16339;48.748;2.222;2022-08-19T01:37:14;23.60;58.70
29345;DHT22;16339;48.748;2.222;2022-08-19T01:39:46;23.60;58.40
29345;DHT22;16339;48.748;2.222;2022-08-19T01:42:14;23.60;58.40
29345;DHT22;16339;48.748;2.222;2022-08-19T01:44:43;23.60;58.40
29345;DHT22;16339;48.748;2.222;2022-08-19T01:47:12;23.50;58.30
29345;DHT22;16339;48.748;2.222;2022-08-19T01:49:41;23.50;58.20
29345;DHT22;16339;48.748;2.222;2022-08-19T01:52:09;23.40;58.30
29345;DHT22;16339;48.748;2.222;2022-08-19T01:54:38;23.40;58.60
29345;DHT22;16339;48.748;2.222;2022-08-19T01:57:12;23.30;58.70
29345;DHT22;16339;48.748;2.222;2022-08-19T01:59:43;23.30;58.90
29345;DHT22;16339;48.748;2.222;2022-08-19T02:02:12;23.30;59.00
29345;DHT22;16339;48.748;2.222;2022-08-19T02:04:40;23.20;59.00
29345;DHT22;16339;48.748;2.222;2022-08-19T02:07:11;23.20;59.00
29345;DHT22;16339;48.748;2.222;2022-08-19T02:09:40;23.10;59.20
29345;DHT22;16339;48.748;2.222;2022-08-19T02:12:11;23.10;59.20
29345;DHT22;16339;48.748;2.222;2022-08-19T02:14:40;23.00;59.40
29345;DHT22;16339;48.748;2.222;2022-08-19T02:17:09;23.00;59.50
29345;DHT22;16339;48.748;2.222;2022-08-19T02:19:37;23.00;59.50
29345;DHT22;16339;48.748;2.222;2022-08-19T02:22:07;23.00;59.30
29345;DHT22;16339;48.748;2.222;2022-08-19T02:24:36;23.10;59.30
29345;DHT22;16339;48.748;2.222;2022-08-19T02:27:05;23.10;59.20
29345;DHT22;16339;48.748;2.222;2022-08-19T02:29:36;23.10;59.20
29345;DHT22;16339;48.748;2.222;2022-08-19T02:32:05;23.10;59.10
29345;DHT22;16339;48.748;2.222;2022-08-19T02:34:34;23.10;59.20
29345;DHT22;16339;48.748;2.222;2022-08-19T02:37:03;23.10;59.20
29345;DHT22;16339;48.748;2.222;2022-08-19T02:39:51;23.10;59.40
29345;DHT22;16339;48.748;2.222;2022-08-19T02:42:18;23.10;59.30
29345;DHT22;16339;48.748;2.222;2022-08-19T02:44:49;23.10;59.40
29345;DHT22;16339;48.748;2.222;2022-08-19T02:47:18;23.10;59.40
29345;DHT22;16339;48.748;2.222;2022-08-19T02:49:47;23.20;59.50
29345;DHT22;16339;48.748;2.222;2022-08-19T02:52:16;23.20;59.50
29345;DHT22;16339;48.748;2.222;2022-08-19T02:54:46;23.20;59.50
29345;DHT22;16339;48.748;2.222;2022-08-19T02:57:14;23.20;59.50
29345;DHT22;16339;48.748;2.222;2022-08-19T02:59:43;23.20;59.50
29345;DHT22;16339;48.748;2.222;2022-08-19T03:02:14;23.10;59.60
29345;DHT22;16339;48.748;2.222;2022-08-19T03:04:43;23.10;59.50
29345;DHT22;16339;48.748;2.222;2022-08-19T03:07:14;23.10;59.70
29345;DHT22;16339;48.748;2.222;2022-08-19T03:09:44;23.10;59.80
29345;DHT22;16339;48.748;2.222;2022-08-19T03:12:13;23.10;59.80
29345;DHT22;16339;48.748;2.222;2022-08-19T03:14:42;23.10;59.80
29345;DHT22;16339;48.748;2.222;2022-08-19T03:17:13;23.10;59.90
29345;DHT22;16339;48.748;2.222;2022-08-19T03:19:42;23.10;59.90
29345;DHT22;16339;48.748;2.222;2022-08-19T03:22:11;23.20;60.00
29345;DHT22;16339;48.748;2.222;2022-08-19T03:24:40;23.20;59.90
29345;DHT22;16339;48.748;2.222;2022-08-19T03:27:09;23.20;59.80
29345;DHT22;16339;48.748;2.222;2022-08-19T03:29:38;23.10;59.80
29345;DHT22;16339;48.748;2.222;2022-08-19T03:32:07;23.10;60.20
29345;DHT22;16339;48.748;2.222;2022-08-19T03:34:38;23.10;60.20
29345;DHT22;16339;48.748;2.222;2022-08-19T03:37:10;23.10;60.30
29345;DHT22;16339;48.748;2.222;2022-08-19T03:39:40;23.10;60.50
29345;DHT22;16339;48.748;2.222;2022-08-19T03:42:10;23.10;60.50
29345;DHT22;16339;48.748;2.222;2022-08-19T03:44:40;23.20;60.50
29345;DHT22;16339;48.748;2.222;2022-08-19T03:47:10;23.20;60.40
29345;DHT22;16339;48.748;2.222;2022-08-19T03:49:44;23.20;60.70
29345;DHT22;16339;48.748;2.222;2022-08-19T03:52:13;23.20;60.70
29345;DHT22;16339;48.748;2.222;2022-08-19T03:54:45;23.20;60.70
29345;DHT22;16339;48.748;2.222;2022-08-19T03:57:13;23.20;60.80
29345;DHT22;16339;48.748;2.222;2022-08-19T03:59:42;23.20;60.70
29345;DHT22;16339;48.748;2.222;2022-08-19T04:02:11;23.20;60.90
29345;DHT22;16339;48.748;2.222;2022-08-19T04:04:44;23.20;61.20
29345;DHT22;16339;48.748;2.222;2022-08-19T04:07:14;23.10;60.80
29345;DHT22;16339;48.748;2.222;2022-08-19T04:09:47;23.10;60.90
29345;DHT22;16339;48.748;2.222;2022-08-19T04:12:17;23.10;61.20
29345;DHT22;16339;48.748;2.222;2022-08-19T04:14:47;23.10;61.40
29345;DHT22;16339;48.748;2.222;2022-08-19T04:17:16;23.00;61.40
29345;DHT22;16339;48.748;2.222;2022-08-19T04:19:47;23.00;61.60
29345;DHT22;16339;48.748;2.222;2022-08-19T04:22:16;22.90;61.70
29345;DHT22;16339;48.748;2.222;2022-08-19T04:24:44;22.90;61.70
29345;DHT22;16339;48.748;2.222;2022-08-19T04:27:13;22.90;62.00
29345;DHT22;16339;48.748;2.222;2022-08-19T04:29:42;22.90;62.00
29345;DHT22;16339;48.748;2.222;2022-08-19T04:32:10;22.90;62.00
29345;DHT22;16339;48.748;2.222;2022-08-19T04:34:41;22.90;61.90
29345;DHT22;16339;48.748;2.222;2022-08-19T04:37:12;23.00;62.00
29345;DHT22;16339;48.748;2.222;2022-08-19T04:39:41;23.00;62.00
29345;DHT22;16339;48.748;2.222;2022-08-19T04:42:27;23.00;62.00
29345;DHT22;16339;48.748;2.222;2022-08-19T04:45:10;23.00;61.90
29345;DHT22;16339;48.748;2.222;2022-08-19T04:47:42;23.00;61.90
29345;DHT22;16339;48.748;2.222;2022-08-19T04:50:11;23.10;62.00
29345;DHT22;16339;48.748;2.222;2022-08-19T04:52:43;23.10;62.00
29345;DHT22;16339;48.748;2.222;2022-08-19T04:55:11;23.10;62.20
29345;DHT22;16339;48.748;2.222;2022-08-19T04:57:40;23.10;62.20
29345;DHT22;16339;48.748;2.222;2022-08-19T05:00:10;23.20;62.20
29345;DHT22;16339;48.748;2.222;2022-08-19T05:02:39;23.10;61.90
29345;DHT22;16339;48.748;2.222;2022-08-19T05:05:08;23.10;61.80
29345;DHT22;16339;48.748;2.222;2022-08-19T05:07:37;23.10;61.90
29345;DHT22;16339;48.748;2.222;2022-08-19T05:10:10;23.10;62.10
29345;DHT22;16339;48.748;2.222;2022-08-19T05:12:38;23.00;62.20
29345;DHT22;16339;48.748;2.222;2022-08-19T05:15:08;23.10;62.30
29345;DHT22;16339;48.748;2.222;2022-08-19T05:17:37;23.10;62.20
29345;DHT22;16339;48.748;2.222;2022-08-19T05:20:26;23.00;62.20
29345;DHT22;16339;48.748;2.222;2022-08-19T05:23:07;23.10;62.50
29345;DHT22;16339;48.748;2.222;2022-08-19T05:25:44;23.20;62.30
29345;DHT22;16339;48.748;2.222;2022-08-19T05:28:12;23.20;62.20
29345;DHT22;16339;48.748;2.222;2022-08-19T05:30:41;23.30;62.10
29345;DHT22;16339;48.748;2.222;2022-08-19T05:33:10;23.30;61.80
29345;DHT22;16339;48.748;2.222;2022-08-19T05:35:39;23.30;61.80
29345;DHT22;16339;48.748;2.222;2022-08-19T05:38:10;23.30;61.70
29345;DHT22;16339;48.748;2.222;2022-08-19T05:40:39;23.30;61.80
29345;DHT22;16339;48.748;2.222;2022-08-19T05:43:14;23.30;61.60
29345;DHT22;16339;48.748;2.222;2022-08-19T05:45:44;23.30;61.80
29345;DHT22;16339;48.748;2.222;2022-08-19T05:48:13;23.00;62.60
29345;DHT22;16339;48.748;2.222;2022-08-19T05:50:43;23.10;63.70
29345;DHT22;16339;48.748;2.222;2022-08-19T05:53:12;23.10;62.80
29345;DHT22;16339;48.748;2.222;2022-08-19T05:55:42;23.10;62.90
29345;DHT22;16339;48.748;2.222;2022-08-19T05:58:13;23.20;63.00
29345;DHT22;16339;48.748;2.222;2022-08-19T06:00:43;23.20;63.00
29345;DHT22;16339;48.748;2.222;2022-08-19T06:03:12;23.10;63.20
29345;DHT22;16339;48.748;2.222;2022-08-19T06:05:41;23.10;63.60
29345;DHT22;16339;48.748;2.222;2022-08-19T06:08:11;22.90;64.20
29345;DHT22;16339;48.748;2.222;2022-08-19T06:10:40;22.60;65.00
29345;DHT22;16339;48.748;2.222;2022-08-19T06:13:08;22.70;65.20
29345;DHT22;16339;48.748;2.222;2022-08-19T06:15:40;22.50;66.00
29345;DHT22;16339;48.748;2.222;2022-08-19T06:18:09;22.40;66.00
29345;DHT22;16339;48.748;2.222;2022-08-19T06:20:38;22.40;66.20
29345;DHT22;16339;48.748;2.222;2022-08-19T06:23:07;22.40;66.10
29345;DHT22;16339;48.748;2.222;2022-08-19T06:25:36;22.50;66.10
29345;DHT22;16339;48.748;2.222;2022-08-19T06:28:07;22.50;65.80
29345;DHT22;16339;48.748;2.222;2022-08-19T06:30:36;22.60;66.50
29345;DHT22;16339;48.748;2.222;2022-08-19T06:33:07;22.50;65.70
29345;DHT22;16339;48.748;2.222;2022-08-19T06:35:38;22.50;65.60
29345;DHT22;16339;48.748;2.222;2022-08-19T06:41:41;22.40;66.30
29345;DHT22;16339;48.748;2.222;2022-08-19T06:44:54;22.40;66.20
29345;DHT22;16339;48.748;2.222;2022-08-19T06:48:22;22.60;66.20
29345;DHT22;16339;48.748;2.222;2022-08-19T06:51:51;22.80;65.70
29345;DHT22;16339;48.748;2.222;2022-08-19T06:54:59;22.90;65.30
29345;DHT22;16339;48.748;2.222;2022-08-19T06:57:51;23.10;65.00
29345;DHT22;16339;48.748;2.222;2022-08-19T07:00:20;23.20;64.60
29345;DHT22;16339;48.748;2.222;2022-08-19T07:02:50;23.20;64.10
29345;DHT22;16339;48.748;2.222;2022-08-19T07:09:13;23.30;64.40
29345;DHT22;16339;48.748;2.222;2022-08-19T07:11:44;23.20;64.20
29345;DHT22;16339;48.748;2.222;2022-08-19T07:14:21;23.30;64.30
29345;DHT22;16339;48.748;2.222;2022-08-19T07:16:52;23.20;64.40
29345;DHT22;16339;48.748;2.222;2022-08-19T07:19:22;23.20;64.20
29345;DHT22;16339;48.748;2.222;2022-08-19T07:21:53;23.30;64.30
29345;DHT22;16339;48.748;2.222;2022-08-19T07:24:31;23.20;64.70
29345;DHT22;16339;48.748;2.222;2022-08-19T07:30:46;23.30;64.70
29345;DHT22;16339;48.748;2.222;2022-08-19T07:33:16;23.20;64.30
29345;DHT22;16339;48.748;2.222;2022-08-19T07:35:53;23.30;64.40
29345;DHT22;16339;48.748;2.222;2022-08-19T07:38:21;23.40;64.20
29345;DHT22;16339;48.748;2.222;2022-08-19T07:40:53;23.40;64.30
29345;DHT22;16339;48.748;2.222;2022-08-19T07:43:22;23.50;64.10
29345;DHT22;16339;48.748;2.222;2022-08-19T07:45:52;23.60;63.90
29345;DHT22;16339;48.748;2.222;2022-08-19T07:48:27;23.60;63.60
29345;DHT22;16339;48.748;2.222;2022-08-19T07:50:58;23.70;63.40
29345;DHT22;16339;48.748;2.222;2022-08-19T07:53:29;23.80;63.10
29345;DHT22;16339;48.748;2.222;2022-08-19T07:56:06;23.90;62.90
29345;DHT22;16339;48.748;2.222;2022-08-19T07:58:38;23.90;62.80
29345;DHT22;16339;48.748;2.222;2022-08-19T08:01:10;23.90;62.50
29345;DHT22;16339;48.748;2.222;2022-08-19T08:03:39;23.90;62.40
29345;DHT22;16339;48.748;2.222;2022-08-19T08:06:20;23.90;62.60
29345;DHT22;16339;48.748;2.222;2022-08-19T08:09:02;23.80;63.10
29345;DHT22;16339;48.748;2.222;2022-08-19T08:11:48;23.80;62.80
29345;DHT22;16339;48.748;2.222;2022-08-19T08:14:19;23.80;63.00
29345;DHT22;16339;48.748;2.222;2022-08-19T08:16:50;23.90;63.00
29345;DHT22;16339;48.748;2.222;2022-08-19T08:19:23;23.90;62.50
29345;DHT22;16339;48.748;2.222;2022-08-19T08:21:54;24.00;62.40
29345;DHT22;16339;48.748;2.222;2022-08-19T08:24:24;23.90;62.30
29345;DHT22;16339;48.748;2.222;2022-08-19T08:34:05;24.00;62.40
29345;DHT22;16339;48.748;2.222;2022-08-19T08:36:37;24.00;62.40
29345;DHT22;16339;48.748;2.222;2022-08-19T08:39:06;24.10;62.10
29345;DHT22;16339;48.748;2.222;2022-08-19T08:41:46;24.20;61.80
29345;DHT22;16339;48.748;2.222;2022-08-19T08:44:21;24.20;61.70
29345;DHT22;16339;48.748;2.222;2022-08-19T08:47:12;24.20;61.60
29345;DHT22;16339;48.748;2.222;2022-08-19T08:49:50;24.20;61.80
29345;DHT22;16339;48.748;2.222;2022-08-19T08:52:23;24.00;61.80
29345;DHT22;16339;48.748;2.222;2022-08-19T08:54:55;24.00;61.90
29345;DHT22;16339;48.748;2.222;2022-08-19T08:57:30;24.00;62.10
29345;DHT22;16339;48.748;2.222;2022-08-19T09:00:06;24.10;62.40
29345;DHT22;16339;48.748;2.222;2022-08-19T09:02:36;24.20;62.30
29345;DHT22;16339;48.748;2.222;2022-08-19T09:05:10;24.30;62.30
29345;DHT22;16339;48.748;2.222;2022-08-19T09:07:45;24.40;62.00
29345;DHT22;16339;48.748;2.222;2022-08-19T09:10:22;24.50;61.40
29345;DHT22;16339;48.748;2.222;2022-08-19T09:12:57;24.60;60.40
29345;DHT22;16339;48.748;2.222;2022-08-19T09:15:34;24.60;60.10
29345;DHT22;16339;48.748;2.222;2022-08-19T09:18:04;24.70;60.10
29345;DHT22;16339;48.748;2.222;2022-08-19T09:20:35;24.70;59.60
29345;DHT22;16339;48.748;2.222;2022-08-19T09:23:06;24.80;59.80
29345;DHT22;16339;48.748;2.222;2022-08-19T09:25:36;24.80;59.50
29345;DHT22;16339;48.748;2.222;2022-08-19T09:28:06;24.90;59.50
29345;DHT22;16339;48.748;2.222;2022-08-19T09:30:40;24.90;58.90
29345;DHT22;16339;48.748;2.222;2022-08-19T09:33:12;25.00;58.80
29345;DHT22;16339;48.748;2.222;2022-08-19T09:35:44;25.00;59.20
29345;DHT22;16339;48.748;2.222;2022-08-19T09:38:13;25.00;59.00
29345;DHT22;16339;48.748;2.222;2022-08-19T09:40:47;25.10;59.10
29345;DHT22;16339;48.748;2.222;2022-08-19T09:43:16;25.10;59.00
29345;DHT22;16339;48.748;2.222;2022-08-19T09:46:04;25.00;59.00
29345;DHT22;16339;48.748;2.222;2022-08-19T09:48:41;25.10;59.40
29345;DHT22;16339;48.748;2.222;2022-08-19T09:51:16;25.10;59.20
29345;DHT22;16339;48.748;2.222;2022-08-19T09:53:46;25.30;58.90
29345;DHT22;16339;48.748;2.222;2022-08-19T09:56:17;25.40;58.70
29345;DHT22;16339;48.748;2.222;2022-08-19T09:58:46;25.50;58.30
29345;DHT22;16339;48.748;2.222;2022-08-19T10:01:18;25.60;58.10
29345;DHT22;16339;48.748;2.222;2022-08-19T10:03:48;25.50;58.10
29345;DHT22;16339;48.748;2.222;2022-08-19T10:06:21;25.60;58.20
29345;DHT22;16339;48.748;2.222;2022-08-19T10:08:51;25.50;58.40
29345;DHT22;16339;48.748;2.222;2022-08-19T10:11:20;25.60;57.90
29345;DHT22;16339;48.748;2.222;2022-08-19T10:13:53;25.50;57.90
29345;DHT22;16339;48.748;2.222;2022-08-19T10:16:26;25.60;58.00
29345;DHT22;16339;48.748;2.222;2022-08-19T10:18:55;25.60;58.10
29345;DHT22;16339;48.748;2.222;2022-08-19T10:21:28;25.60;58.30
29345;DHT22;16339;48.748;2.222;2022-08-19T10:24:18;25.60;58.50
29345;DHT22;16339;48.748;2.222;2022-08-19T10:26:49;25.60;58.20
29345;DHT22;16339;48.748;2.222;2022-08-19T10:29:18;25.70;58.10
29345;DHT22;16339;48.748;2.222;2022-08-19T10:31:47;25.70;58.30
29345;DHT22;16339;48.748;2.222;2022-08-19T10:34:16;25.80;58.00
29345;DHT22;16339;48.748;2.222;2022-08-19T10:36:47;25.90;57.80
29345;DHT22;16339;48.748;2.222;2022-08-19T10:39:26;25.90;57.60
29345;DHT22;16339;48.748;2.222;2022-08-19T10:41:56;25.80;58.00
29345;DHT22;16339;48.748;2.222;2022-08-19T10:44:25;25.90;57.70
29345;DHT22;16339;48.748;2.222;2022-08-19T10:46:59;26.00;58.00
29345;DHT22;16339;48.748;2.222;2022-08-19T10:49:28;26.00;57.90
29345;DHT22;16339;48.748;2.222;2022-08-19T10:52:00;26.10;57.90
29345;DHT22;16339;48.748;2.222;2022-08-19T10:54:41;26.10;57.90
29345;DHT22;16339;48.748;2.222;2022-08-19T10:57:35;26.30;57.40
29345;DHT22;16339;48.748;2.222;2022-08-19T11:00:05;26.30;56.90
29345;DHT22;16339;48.748;2.222;2022-08-19T11:02:34;26.30;56.90
29345;DHT22;16339;48.748;2.222;2022-08-19T11:05:09;26.40;57.00
29345;DHT22;16339;48.748;2.222;2022-08-19T11:07:44;26.40;57.20
29345;DHT22;16339;48.748;2.222;2022-08-19T11:10:15;26.40;57.40
29345;DHT22;16339;48.748;2.222;2022-08-19T11:12:45;26.40;57.50
29345;DHT22;16339;48.748;2.222;2022-08-19T11:15:16;26.50;57.20
29345;DHT22;16339;48.748;2.222;2022-08-19T11:17:45;26.60;56.90
29345;DHT22;16339;48.748;2.222;2022-08-19T11:20:18;26.60;56.80
29345;DHT22;16339;48.748;2.222;2022-08-19T11:22:54;26.50;56.00
29345;DHT22;16339;48.748;2.222;2022-08-19T11:25:23;26.50;56.30
29345;DHT22;16339;48.748;2.222;2022-08-19T11:27:59;26.50;56.80
29345;DHT22;16339;48.748;2.222;2022-08-19T11:30:31;26.40;56.80
29345;DHT22;16339;48.748;2.222;2022-08-19T11:33:00;26.30;56.90
29345;DHT22;16339;48.748;2.222;2022-08-19T11:35:29;26.30;57.10
29345;DHT22;16339;48.748;2.222;2022-08-19T11:38:00;26.30;57.30
29345;DHT22;16339;48.748;2.222;2022-08-19T11:40:29;26.20;57.50
29345;DHT22;16339;48.748;2.222;2022-08-19T11:43:01;26.20;57.40
29345;DHT22;16339;48.748;2.222;2022-08-19T11:45:30;26.20;57.50
29345;DHT22;16339;48.748;2.222;2022-08-19T11:47:59;26.00;57.40
29345;DHT22;16339;48.748;2.222;2022-08-19T11:50:30;26.10;57.80
29345;DHT22;16339;48.748;2.222;2022-08-19T11:53:09;26.10;57.30
29345;DHT22;16339;48.748;2.222;2022-08-19T11:55:38;26.00;57.00
29345;DHT22;16339;48.748;2.222;2022-08-19T11:58:08;26.00;57.30
29345;DHT22;16339;48.748;2.222;2022-08-19T12:00:38;25.90;57.30
29345;DHT22;16339;48.748;2.222;2022-08-19T12:03:07;25.90;57.90
29345;DHT22;16339;48.748;2.222;2022-08-19T12:05:37;25.90;57.80
29345;DHT22;16339;48.748;2.222;2022-08-19T12:08:09;26.10;58.00
29345;DHT22;16339;48.748;2.222;2022-08-19T12:10:39;26.10;57.00
29345;DHT22;16339;48.748;2.222;2022-08-19T12:13:08;26.20;57.10
29345;DHT22;16339;48.748;2.222;2022-08-19T12:15:39;26.30;56.90
29345;DHT22;16339;48.748;2.222;2022-08-19T12:18:09;26.40;56.80
29345;DHT22;16339;48.748;2.222;2022-08-19T12:20:40;26.60;56.90
29345;DHT22;16339;48.748;2.222;2022-08-19T12:23:14;26.90;55.10
29345;DHT22;16339;48.748;2.222;2022-08-19T12:25:45;26.80;55.30
29345;DHT22;16339;48.748;2.222;2022-08-19T12:28:21;26.90;54.90
29345;DHT22;16339;48.748;2.222;2022-08-19T12:30:51;27.10;53.80
29345;DHT22;16339;48.748;2.222;2022-08-19T12:33:20;27.00;53.90
29345;DHT22;16339;48.748;2.222;2022-08-19T12:35:53;27.00;53.90
29345;DHT22;16339;48.748;2.222;2022-08-19T12:38:24;26.90;54.20
29345;DHT22;16339;48.748;2.222;2022-08-19T12:40:54;26.90;54.50
29345;DHT22;16339;48.748;2.222;2022-08-19T12:43:23;27.00;54.30
29345;DHT22;16339;48.748;2.222;2022-08-19T12:45:52;27.00;54.20
29345;DHT22;16339;48.748;2.222;2022-08-19T12:48:20;27.00;53.80
29345;DHT22;16339;48.748;2.222;2022-08-19T12:50:55;27.10;53.50
29345;DHT22;16339;48.748;2.222;2022-08-19T12:53:37;27.00;53.50
29345;DHT22;16339;48.748;2.222;2022-08-19T12:56:06;27.20;53.60
29345;DHT22;16339;48.748;2.222;2022-08-19T12:58:35;27.40;53.90
29345;DHT22;16339;48.748;2.222;2022-08-19T13:01:08;27.60;53.20
29345;DHT22;16339;48.748;2.222;2022-08-19T13:03:41;27.90;53.90
29345;DHT22;16339;48.748;2.222;2022-08-19T13:06:10;27.90;52.90
29345;DHT22;16339;48.748;2.222;2022-08-19T13:08:42;28.00;51.90
29345;DHT22;16339;48.748;2.222;2022-08-19T13:11:12;28.00;52.10
29345;DHT22;16339;48.748;2.222;2022-08-19T13:13:42;28.10;52.30
29345;DHT22;16339;48.748;2.222;2022-08-19T13:16:11;28.20;51.50
29345;DHT22;16339;48.748;2.222;2022-08-19T13:18:41;28.30;52.20
29345;DHT22;16339;48.748;2.222;2022-08-19T13:21:10;28.30;51.70
29345;DHT22;16339;48.748;2.222;2022-08-19T13:23:42;28.20;51.80
29345;DHT22;16339;48.748;2.222;2022-08-19T13:26:12;28.00;51.40
29345;DHT22;16339;48.748;2.222;2022-08-19T13:28:44;27.90;51.80
29345;DHT22;16339;48.748;2.222;2022-08-19T13:31:27;27.80;52.20
29345;DHT22;16339;48.748;2.222;2022-08-19T13:34:08;27.60;52.70
29345;DHT22;16339;48.748;2.222;2022-08-19T13:36:38;27.50;53.30
29345;DHT22;16339;48.748;2.222;2022-08-19T13:39:09;27.40;53.80
29345;DHT22;16339;48.748;2.222;2022-08-19T13:41:43;27.30;53.80
29345;DHT22;16339;48.748;2.222;2022-08-19T13:44:13;27.30;53.90
29345;DHT22;16339;48.748;2.222;2022-08-19T13:46:44;27.30;54.00
29345;DHT22;16339;48.748;2.222;2022-08-19T13:49:17;27.30;54.30
29345;DHT22;16339;48.748;2.222;2022-08-19T13:51:46;27.30;54.10
29345;DHT22;16339;48.748;2.222;2022-08-19T13:54:17;27.30;53.80
29345;DHT22;16339;48.748;2.222;2022-08-19T13:56:46;27.20;54.20
29345;DHT22;16339;48.748;2.222;2022-08-19T13:59:15;27.20;54.30
29345;DHT22;16339;48.748;2.222;2022-08-19T14:01:43;27.10;53.90
29345;DHT22;16339;48.748;2.222;2022-08-19T14:04:12;27.00;54.20
29345;DHT22;16339;48.748;2.222;2022-08-19T14:06:42;27.00;54.40
29345;DHT22;16339;48.748;2.222;2022-08-19T14:09:11;27.00;54.70
29345;DHT22;16339;48.748;2.222;2022-08-19T14:11:42;26.90;54.90
29345;DHT22;16339;48.748;2.222;2022-08-19T14:14:12;27.00;55.40
29345;DHT22;16339;48.748;2.222;2022-08-19T14:16:40;27.00;55.50
29345;DHT22;16339;48.748;2.222;2022-08-19T14:19:09;27.10;55.70
29345;DHT22;16339;48.748;2.222;2022-08-19T14:21:38;27.10;55.70
29345;DHT22;16339;48.748;2.222;2022-08-19T14:24:07;27.20;55.00
29345;DHT22;16339;48.748;2.222;2022-08-19T14:26:35;27.30;55.30
29345;DHT22;16339;48.748;2.222;2022-08-19T14:29:07;27.30;54.70
29345;DHT22;16339;48.748;2.222;2022-08-19T14:31:35;27.30;54.50
29345;DHT22;16339;48.748;2.222;2022-08-19T14:34:06;27.40;54.10
29345;DHT22;16339;48.748;2.222;2022-08-19T14:36:38;27.50;54.40
29345;DHT22;16339;48.748;2.222;2022-08-19T14:39:07;27.50;54.50
29345;DHT22;16339;48.748;2.222;2022-08-19T14:41:40;27.40;54.30
29345;DHT22;16339;48.748;2.222;2022-08-19T14:44:12;27.30;54.40
29345;DHT22;16339;48.748;2.222;2022-08-19T14:46:41;27.30;54.70
29345;DHT22;16339;48.748;2.222;2022-08-19T14:49:10;27.10;54.90
29345;DHT22;16339;48.748;2.222;2022-08-19T14:51:39;27.00;55.20
29345;DHT22;16339;48.748;2.222;2022-08-19T14:54:08;27.00;56.50
29345;DHT22;16339;48.748;2.222;2022-08-19T14:56:37;26.90;56.80
29345;DHT22;16339;48.748;2.222;2022-08-19T14:59:11;26.80;55.80
29345;DHT22;16339;48.748;2.222;2022-08-19T15:01:40;26.60;57.20
29345;DHT22;16339;48.748;2.222;2022-08-19T15:04:09;26.50;56.10
29345;DHT22;16339;48.748;2.222;2022-08-19T15:06:37;26.40;56.60
29345;DHT22;16339;48.748;2.222;2022-08-19T15:09:08;26.30;56.50
29345;DHT22;16339;48.748;2.222;2022-08-19T15:11:36;26.20;56.40
29345;DHT22;16339;48.748;2.222;2022-08-19T15:14:06;26.10;56.00
29345;DHT22;16339;48.748;2.222;2022-08-19T15:16:37;26.20;56.10
29345;DHT22;16339;48.748;2.222;2022-08-19T15:19:07;26.30;56.20
29345;DHT22;16339;48.748;2.222;2022-08-19T15:21:37;26.40;56.20
29345;DHT22;16339;48.748;2.222;2022-08-19T15:24:06;26.50;56.60
29345;DHT22;16339;48.748;2.222;2022-08-19T15:26:35;26.60;56.40
29345;DHT22;16339;48.748;2.222;2022-08-19T15:29:04;26.70;56.40
29345;DHT22;16339;48.748;2.222;2022-08-19T15:31:33;26.80;55.90
29345;DHT22;16339;48.748;2.222;2022-08-19T15:34:05;26.90;55.70
29345;DHT22;16339;48.748;2.222;2022-08-19T15:36:34;27.00;55.30
29345;DHT22;16339;48.748;2.222;2022-08-19T15:39:04;27.20;54.80
29345;DHT22;16339;48.748;2.222;2022-08-19T15:41:34;27.20;54.50
29345;DHT22;16339;48.748;2.222;2022-08-19T15:44:08;27.10;54.30
29345;DHT22;16339;48.748;2.222;2022-08-19T15:46:40;27.10;54.40
29345;DHT22;16339;48.748;2.222;2022-08-19T15:49:14;27.00;54.80
29345;DHT22;16339;48.748;2.222;2022-08-19T15:51:45;27.00;54.80
29345;DHT22;16339;48.748;2.222;2022-08-19T15:54:17;26.90;54.90
29345;DHT22;16339;48.748;2.222;2022-08-19T15:56:47;26.90;55.00
29345;DHT22;16339;48.748;2.222;2022-08-19T15:59:29;26.70;54.80
29345;DHT22;16339;48.748;2.222;2022-08-19T16:02:10;26.60;55.50
29345;DHT22;16339;48.748;2.222;2022-08-19T16:04:54;26.60;55.50
29345;DHT22;16339;48.748;2.222;2022-08-19T16:07:36;26.60;55.60
29345;DHT22;16339;48.748;2.222;2022-08-19T16:10:06;26.60;55.70
29345;DHT22;16339;48.748;2.222;2022-08-19T16:12:36;26.70;55.70
29345;DHT22;16339;48.748;2.222;2022-08-19T16:15:07;26.60;55.60
29345;DHT22;16339;48.748;2.222;2022-08-19T16:17:36;26.70;55.80